Time;durP1;ratioP1;P1;durP2;ratioP2;P2;SDS_P1;SDS_P2;PMS_P1;PMS_P2;Temp;Humidity;BMP_temperature;BMP_pressure;BME280_temperature;BME280_humidity;BME280_pressure;Samples;Min_cycle;Max_cycle;Signal;HPM_P1;HPM_P2
2024/02/21 00:01:16;;;;;;;;;;;;;;;6.92;100.00;101740.03;5070756;28;19935;-80
2024/02/21 00:03:41;;;;;;;;;;;;;;;6.89;100.00;101740.31;5070978;28;19920;-79
2024/02/21 00:06:06;;;;;;;;;;;;;;;6.86;100.00;101735.28;5070079;28;20323;-79
2024/02/21 00:08:32;;;;;;;;;;;;;;;6.83;100.00;101731.91;5070515;28;20311;-79
2024/02/21 00:10:57;;;;;;;;;;;;;;;6.82;100.00;101730.22;5070677;28;20083;-80
2024/02/21 00:13:22;;;;;;;;;;;;;;;6.87;100.00;101727.09;5070273;28;19957;-80
2024/02/21 00:15:47;;;;;;;;;;;;;;;6.92;100.00;101729.31;5070461;28;19927;-79
2024/02/21 00:18:13;;;;;;;;;;;;;;;6.85;100.00;101712.19;5070246;28;19967;-80
2024/02/21 00:20:38;;;;;;;;;;;;;;;6.89;100.00;101721.59;5071160;28;19976;-80
2024/02/21 00:23:03;;;;;;;;;;;;;;;6.91;100.00;101717.78;5070541;28;19955;-80
2024/02/21 00:25:28;;;;;;;;;;;;;;;6.93;100.00;101718.47;5069604;28;19924;-79
2024/02/21 00:27:54;;;;;;;;;;;;;;;6.96;100.00;101717.31;5070625;28;19920;-80
2024/02/21 00:30:19;;;;;;;;;;;;;;;6.93;100.00;101701.56;5069967;28;20384;-80
2024/02/21 00:32:44;;;;;;;;;;;;;;;6.93;100.00;101698.88;5073415;28;20396;-79
2024/02/21 00:35:09;;;;;;;;;;;;;;;6.95;100.00;101712.97;5073150;28;19959;-79
2024/02/21 00:37:34;;;;;;;;;;;;;;;6.92;100.00;101705.22;5073566;28;19928;-79
2024/02/21 00:40:00;;;;;;;;;;;;;;;6.89;100.00;101703.69;5073848;28;19921;-79
2024/02/21 00:42:25;;;;;;;;;;;;;;;6.83;100.00;101699.81;5075055;28;19946;-79
2024/02/21 00:44:50;;;;;;;;;;;;;;;6.76;100.00;101698.72;5076256;28;20008;-79
2024/02/21 00:47:15;;;;;;;;;;;;;;;6.80;100.00;101710.81;5076918;28;19928;-80
2024/02/21 00:49:41;;;;;;;;;;;;;;;6.82;100.00;101691.91;5075100;28;19916;-79
2024/02/21 00:52:06;;;;;;;;;;;;;;;6.78;100.00;101694.06;5074461;28;19921;-80
2024/02/21 00:54:31;;;;;;;;;;;;;;;6.77;100.00;101689.69;5073539;28;19920;-79
2024/02/21 00:56:56;;;;;;;;;;;;;;;6.74;100.00;101687.31;5074396;28;20025;-80
2024/02/21 00:59:21;;;;;;;;;;;;;;;6.72;100.00;101670.56;5073499;28;19963;-80
2024/02/21 01:01:47;;;;;;;;;;;;;;;6.68;100.00;101671.88;5073057;28;20009;-79
2024/02/21 01:04:12;;;;;;;;;;;;;;;6.64;100.00;101674.00;5073999;28;19916;-77
2024/02/21 01:06:37;;;;;;;;;;;;;;;6.68;100.00;101672.72;5073855;28;19974;-77
2024/02/21 01:09:02;;;;;;;;;;;;;;;6.66;100.00;101671.19;5072751;28;19921;-78
2024/02/21 01:11:28;;;;;;;;;;;;;;;6.73;100.00;101647.34;5073892;28;20394;-77
2024/02/21 01:13:53;;;;;;;;;;;;;;;6.74;100.00;101641.81;5073850;28;19920;-77
2024/02/21 01:16:18;;;;;;;;;;;;;;;6.78;100.00;101637.84;5072796;28;19925;-77
2024/02/21 01:18:43;;;;;;;;;;;;;;;6.72;100.00;101648.31;5073620;28;20360;-77
2024/02/21 01:21:09;;;;;;;;;;;;;;;6.71;100.00;101635.94;5073872;28;20527;-77
2024/02/21 01:23:35;;;;;;;;;;;;;;;6.60;100.00;101643.22;5072144;28;19928;-77
2024/02/21 01:26:00;;;;;;;;;;;;;;;6.62;100.00;101648.41;5073829;28;20287;-77
2024/02/21 01:28:25;;;;;;;;;;;;;;;6.61;100.00;101646.72;5074072;28;19927;-77
2024/02/21 01:30:51;;;;;;;;;;;;;;;6.61;100.00;101644.88;5065873;28;20327;-77
2024/02/21 01:33:17;;;;;;;;;;;;;;;6.52;100.00;101638.63;5073409;28;19948;-77
2024/02/21 01:35:42;;;;;;;;;;;;;;;6.58;100.00;101637.16;5073458;28;19971;-77
2024/02/21 01:38:07;;;;;;;;;;;;;;;6.65;100.00;101624.00;5072556;28;20351;-77
2024/02/21 01:40:32;;;;;;;;;;;;;;;6.65;100.00;101629.38;5072957;28;20090;-77
2024/02/21 01:42:57;;;;;;;;;;;;;;;6.64;100.00;101622.34;5072384;28;19967;-78
2024/02/21 01:45:23;;;;;;;;;;;;;;;6.62;100.00;101610.94;5072843;28;20013;-77
2024/02/21 01:47:48;;;;;;;;;;;;;;;6.55;100.00;101617.88;5072556;28;19954;-77
2024/02/21 01:50:13;;;;;;;;;;;;;;;6.53;100.00;101624.22;5073298;28;19967;-77
2024/02/21 01:52:38;;;;;;;;;;;;;;;6.59;100.00;101616.59;5054279;28;19924;-77
2024/02/21 01:55:04;;;;;;;;;;;;;;;6.46;100.00;101616.94;5072381;28;20026;-77
2024/02/21 01:57:29;;;;;;;;;;;;;;;6.58;100.00;101615.75;5055031;28;20011;-77
2024/02/21 01:59:55;;;;;;;;;;;;;;;6.69;100.00;101606.66;5054412;28;20010;-77
2024/02/21 02:02:20;;;;;;;;;;;;;;;6.72;100.00;101601.00;5072885;28;19927;-77
2024/02/21 02:04:45;;;;;;;;;;;;;;;6.61;100.00;101610.09;5054122;28;19921;-77
2024/02/21 02:07:10;;;;;;;;;;;;;;;6.74;100.00;101609.72;5054243;28;19935;-77
2024/02/21 02:09:36;;;;;;;;;;;;;;;6.81;100.00;101594.72;5071859;28;19920;-77
2024/02/21 02:12:01;;;;;;;;;;;;;;;6.70;100.00;101600.34;5072784;28;19927;-77
2024/02/21 02:14:26;;;;;;;;;;;;;;;6.77;100.00;101598.72;5072788;28;20377;-77
2024/02/21 02:16:51;;;;;;;;;;;;;;;6.82;100.00;101587.53;5072226;28;19925;-77
2024/02/21 02:19:20;;;;;;;;;;;;;;;6.77;100.00;101596.03;5071817;28;19927;-77
2024/02/21 02:21:54;;;;;;;;;;;;;;;6.85;100.00;101583.72;5072509;28;19920;-76
2024/02/21 02:24:20;;;;;;;;;;;;;;;6.85;100.00;101584.56;5072150;28;19935;-78
2024/02/21 02:26:45;;;;;;;;;;;;;;;6.78;100.00;101578.97;5065098;28;19920;-76
2024/02/21 02:29:11;;;;;;;;;;;;;;;6.80;100.00;101571.63;5072472;28;20435;-78
2024/02/21 02:31:37;;;;;;;;;;;;;;;6.79;100.00;101569.97;5072091;28;20364;-76
2024/02/21 02:34:02;;;;;;;;;;;;;;;6.81;100.00;101565.28;5072440;28;19925;-78
2024/02/21 02:36:27;;;;;;;;;;;;;;;6.92;100.00;101558.00;5072847;28;19920;-78
2024/02/21 02:38:52;;;;;;;;;;;;;;;6.88;100.00;101556.66;5072243;28;20418;-78
2024/02/21 02:41:17;;;;;;;;;;;;;;;6.88;100.00;101567.38;5072015;28;20377;-78
2024/02/21 02:43:43;;;;;;;;;;;;;;;6.90;100.00;101550.16;5072239;28;20434;-78
2024/02/21 02:46:08;;;;;;;;;;;;;;;6.90;100.00;101562.66;5071521;28;20368;-77
2024/02/21 02:48:33;;;;;;;;;;;;;;;6.91;100.00;101559.00;5071647;28;19924;-77
2024/02/21 02:50:58;;;;;;;;;;;;;;;6.96;100.00;101556.72;5079419;28;19915;-78
2024/02/21 02:53:24;;;;;;;;;;;;;;;6.93;100.00;101555.19;5075955;28;19920;-78
2024/02/21 02:55:49;;;;;;;;;;;;;;;6.86;100.00;101551.44;5072134;28;19924;-78
2024/02/21 02:58:14;;;;;;;;;;;;;;;6.80;100.00;101544.88;5071893;28;20006;-78
2024/02/21 03:00:39;;;;;;;;;;;;;;;6.95;100.00;101552.34;5071099;28;19936;-78
2024/02/21 03:03:05;;;;;;;;;;;;;;;6.92;100.00;101547.31;5072145;28;19920;-76
2024/02/21 03:05:30;;;;;;;;;;;;;;;6.98;100.00;101557.41;5072109;28;19924;-75
2024/02/21 03:07:55;;;;;;;;;;;;;;;6.79;100.00;101553.91;5070609;28;19920;-76
2024/02/21 03:10:20;;;;;;;;;;;;;;;6.92;100.00;101558.00;5071508;28;20054;-76
2024/02/21 03:12:45;;;;;;;;;;;;;;;6.87;100.00;101554.97;5071897;28;19921;-76
2024/02/21 03:15:11;;;;;;;;;;;;;;;6.84;100.00;101556.09;5064291;28;19979;-77
2024/02/21 03:17:37;;;;;;;;;;;;;;;6.75;100.00;101562.41;5071958;28;20241;-79
2024/02/21 03:20:04;;;;;;;;;;;;;;;6.79;100.00;101551.22;5072508;28;19921;-81
2024/02/21 03:22:30;;;;;;;;;;;;;;;6.89;100.00;101550.28;5071015;28;19924;-81
2024/02/21 03:24:55;;;;;;;;;;;;;;;6.97;100.00;101550.34;5071412;28;20008;-80
2024/02/21 03:27:20;;;;;;;;;;;;;;;6.94;100.00;101543.50;5071803;28;19952;-80
2024/02/21 03:29:45;;;;;;;;;;;;;;;7.00;100.00;101528.63;5070153;28;19963;-81
2024/02/21 03:32:11;;;;;;;;;;;;;;;6.97;100.00;101540.47;5070498;28;20296;-80
2024/02/21 03:34:36;;;;;;;;;;;;;;;6.90;100.00;101534.09;5071317;28;19966;-80
2024/02/21 03:37:01;;;;;;;;;;;;;;;6.98;100.00;101535.97;5069852;28;19920;-79
2024/02/21 03:39:26;;;;;;;;;;;;;;;7.01;100.00;101538.34;5070730;28;19928;-80
2024/02/21 03:41:52;;;;;;;;;;;;;;;6.99;100.00;101548.38;5072390;28;19966;-79
2024/02/21 03:44:17;;;;;;;;;;;;;;;6.93;100.00;101532.91;5070271;28;20372;-79
2024/02/21 03:46:42;;;;;;;;;;;;;;;6.91;100.00;101540.25;5070574;28;20509;-80
2024/02/21 03:49:07;;;;;;;;;;;;;;;6.99;100.00;101526.94;5071065;28;20269;-79
2024/02/21 03:51:33;;;;;;;;;;;;;;;6.99;100.00;101532.31;5070644;28;20292;-79
2024/02/21 03:53:58;;;;;;;;;;;;;;;6.92;100.00;101526.75;5070621;28;19967;-79
2024/02/21 03:56:23;;;;;;;;;;;;;;;7.01;100.00;101535.66;5071381;28;19942;-79
2024/02/21 03:58:48;;;;;;;;;;;;;;;6.85;100.00;101524.84;5069944;28;19934;-80
2024/02/21 04:01:15;;;;;;;;;;;;;;;6.89;100.00;101510.13;5071600;28;20003;-79
2024/02/21 04:03:40;;;;;;;;;;;;;;;6.88;100.00;101520.00;5071179;28;20314;-79
2024/02/21 04:06:05;;;;;;;;;;;;;;;6.78;100.00;101520.09;5070223;28;19944;-79
2024/02/21 04:08:30;;;;;;;;;;;;;;;6.76;100.00;101527.44;5070655;28;19921;-79
2024/02/21 04:10:56;;;;;;;;;;;;;;;6.82;100.00;101525.97;5070813;28;19927;-79
2024/02/21 04:13:22;;;;;;;;;;;;;;;6.87;100.00;101520.19;5063159;28;19920;-79
2024/02/21 04:15:47;;;;;;;;;;;;;;;6.82;100.00;101513.47;5071356;28;19951;-79
2024/02/21 04:18:14;;;;;;;;;;;;;;;6.91;100.00;101524.19;5069972;28;19920;-79
2024/02/21 04:20:39;;;;;;;;;;;;;;;6.88;100.00;101522.69;5071160;28;19951;-80
2024/02/21 04:23:05;;;;;;;;;;;;;;;6.89;100.00;101524.38;5070823;28;19921;-79
2024/02/21 04:25:30;;;;;;;;;;;;;;;6.92;100.00;101518.72;5070565;28;19979;-79
2024/02/21 04:27:55;;;;;;;;;;;;;;;6.97;100.00;101507.53;5071572;28;19924;-79
2024/02/21 04:30:20;;;;;;;;;;;;;;;6.97;100.00;101503.00;5070047;28;19982;-79
2024/02/21 04:32:46;;;;;;;;;;;;;;;7.00;100.00;101509.91;5069779;28;19920;-79
2024/02/21 04:35:11;;;;;;;;;;;;;;;6.99;100.00;101516.25;5071453;28;19924;-80
2024/02/21 04:37:36;;;;;;;;;;;;;;;6.94;100.00;101514.03;5070247;28;19946;-79
2024/02/21 04:40:01;;;;;;;;;;;;;;;6.92;100.00;101516.03;5070396;28;19982;-80
2024/02/21 04:42:26;;;;;;;;;;;;;;;6.98;100.00;101506.53;5070907;28;19920;-80
2024/02/21 04:44:52;;;;;;;;;;;;;;;6.92;100.00;101505.34;5070436;28;19924;-80
2024/02/21 04:47:20;;;;;;;;;;;;;;;6.93;100.00;101503.47;5069010;28;19927;-80
2024/02/21 04:49:45;;;;;;;;;;;;;;;6.89;100.00;101507.47;5070672;28;20372;-80
2024/02/21 04:52:11;;;;;;;;;;;;;;;6.79;100.00;101503.06;5069998;28;20027;-80
2024/02/21 04:54:36;;;;;;;;;;;;;;;6.94;100.00;101505.16;5069755;28;19978;-80
2024/02/21 04:57:01;;;;;;;;;;;;;;;6.94;100.00;101507.84;5085603;28;19920;-79
2024/02/21 04:59:26;;;;;;;;;;;;;;;6.98;100.00;101493.16;5077083;28;20376;-79
2024/02/21 05:01:52;;;;;;;;;;;;;;;7.01;100.00;101500.00;5071701;28;20279;-80
2024/02/21 05:04:17;;;;;;;;;;;;;;;6.94;100.00;101491.78;5071108;28;20368;-80
2024/02/21 05:06:45;;;;;;;;;;;;;;;6.95;100.00;101490.78;5070458;28;19928;-79
2024/02/21 05:09:10;;;;;;;;;;;;;;;6.97;100.00;101475.41;5069673;28;19925;-88
2024/02/21 05:11:35;;;;;;;;;;;;;;;6.98;100.00;101477.09;5071115;28;20312;-80
2024/02/21 05:14:03;;;;;;;;;;;;;;;6.89;100.00;101476.19;5069870;28;20379;-80
2024/02/21 05:16:29;;;;;;;;;;;;;;;6.89;100.00;101478.00;5069854;28;19921;-80
2024/02/21 05:18:54;;;;;;;;;;;;;;;6.92;100.00;101475.88;5074335;28;19927;-80
2024/02/21 05:21:19;;;;;;;;;;;;;;;6.86;100.00;101478.34;5072458;28;19932;-77
2024/02/21 05:23:44;;;;;;;;;;;;;;;6.92;100.00;101475.03;5073573;28;19995;-79
2024/02/21 05:26:09;;;;;;;;;;;;;;;6.88;100.00;101468.34;5074441;28;19966;-79
2024/02/21 05:28:35;;;;;;;;;;;;;;;6.90;100.00;101460.97;5072316;28;19924;-79
2024/02/21 05:31:00;;;;;;;;;;;;;;;6.81;100.00;101466.28;5072836;28;19916;-78
2024/02/21 05:33:25;;;;;;;;;;;;;;;6.91;100.00;101459.97;5074767;28;19920;-79
2024/02/21 05:35:51;;;;;;;;;;;;;;;6.86;100.00;101467.66;5072731;28;20265;-80
2024/02/21 05:38:16;;;;;;;;;;;;;;;6.83;100.00;101456.25;5073633;28;19920;-80
2024/02/21 05:40:47;;;;;;;;;;;;;;;6.77;100.00;101442.66;5074489;28;20030;-80
2024/02/21 05:43:13;;;;;;;;;;;;;;;6.87;100.00;101447.91;5072970;28;19927;-80
2024/02/21 05:45:38;;;;;;;;;;;;;;;6.81;100.00;101449.38;5073551;28;19924;-79
2024/02/21 05:48:03;;;;;;;;;;;;;;;6.88;100.00;101430.88;5074543;28;19928;-80
2024/02/21 05:50:29;;;;;;;;;;;;;;;6.89;100.00;101435.19;5072982;28;20369;-79
2024/02/21 05:52:54;;;;;;;;;;;;;;;6.89;100.00;101429.84;5073506;28;19931;-80
2024/02/21 05:55:19;;;;;;;;;;;;;;;6.88;100.00;101425.50;5074328;28;20408;-79
2024/02/21 05:57:44;;;;;;;;;;;;;;;6.84;100.00;101427.66;5070312;28;20269;-79
2024/02/21 06:00:10;;;;;;;;;;;;;;;6.86;100.00;101424.84;5072958;28;20406;-79
2024/02/21 06:02:35;;;;;;;;;;;;;;;6.86;100.00;101416.81;5073767;28;20359;-79
2024/02/21 06:05:00;;;;;;;;;;;;;;;6.81;100.00;101410.06;5054554;28;19924;-79
2024/02/21 06:07:25;;;;;;;;;;;;;;;6.71;100.00;101412.00;5073475;28;19973;-79
2024/02/21 06:09:51;;;;;;;;;;;;;;;6.77;100.00;101398.00;5073432;28;19920;-79
2024/02/21 06:12:16;;;;;;;;;;;;;;;6.74;100.00;101384.94;5072858;28;19974;-79
2024/02/21 06:14:41;;;;;;;;;;;;;;;6.77;100.00;101381.94;5072491;28;19991;-79
2024/02/21 06:17:06;;;;;;;;;;;;;;;6.76;100.00;101377.59;5065444;28;19975;-78
2024/02/21 06:19:32;;;;;;;;;;;;;;;6.73;100.00;101374.41;5071787;28;19979;-79
2024/02/21 06:21:57;;;;;;;;;;;;;;;6.70;100.00;101377.38;5072670;28;19920;-78
2024/02/21 06:24:22;;;;;;;;;;;;;;;6.66;100.00;101376.88;5073082;28;19974;-79
2024/02/21 06:26:50;;;;;;;;;;;;;;;6.68;100.00;101369.53;5073227;28;20022;-79
2024/02/21 06:29:15;;;;;;;;;;;;;;;6.67;100.00;101366.00;5072248;28;20018;-78
2024/02/21 06:31:40;;;;;;;;;;;;;;;6.61;100.00;101373.81;5072252;28;19946;-78
2024/02/21 06:34:05;;;;;;;;;;;;;;;6.59;100.00;101367.78;5072834;28;20295;-79
2024/02/21 06:36:31;;;;;;;;;;;;;;;6.65;100.00;101364.50;5072468;28;19929;-79
2024/02/21 06:38:56;;;;;;;;;;;;;;;6.66;100.00;101368.84;5072186;28;19974;-79
2024/02/21 06:41:21;;;;;;;;;;;;;;;6.71;100.00;101373.72;5073213;28;19924;-79
2024/02/21 06:43:46;;;;;;;;;;;;;;;6.65;100.00;101369.84;5071718;28;19917;-79
2024/02/21 06:46:12;;;;;;;;;;;;;;;6.60;100.00;101366.78;5071685;28;19920;-78
2024/02/21 06:48:37;;;;;;;;;;;;;;;6.66;100.00;101374.19;5072336;28;20282;-79
2024/02/21 06:51:03;;;;;;;;;;;;;;;6.73;100.00;101375.22;5071531;28;20323;-79
2024/02/21 06:53:28;;;;;;;;;;;;;;;6.74;100.00;101376.09;5071432;28;19920;-78
2024/02/21 06:55:53;;;;;;;;;;;;;;;6.77;100.00;101363.22;5072542;28;20340;-79
2024/02/21 06:58:18;;;;;;;;;;;;;;;6.74;100.00;101374.22;5071912;28;20384;-79
2024/02/21 07:00:44;;;;;;;;;;;;;;;6.81;100.00;101375.28;5071390;28;19924;-78
2024/02/21 07:03:12;;;;;;;;;;;;;;;6.85;100.00;101373.13;5072766;28;19925;-79
2024/02/21 07:05:37;;;;;;;;;;;;;;;6.84;100.00;101368.78;5087503;28;20022;-79
2024/02/21 07:08:05;;;;;;;;;;;;;;;6.90;100.00;101372.63;5070794;28;19924;-79
2024/02/21 07:10:30;;;;;;;;;;;;;;;6.91;100.00;101377.00;5055248;28;20297;-79
2024/02/21 07:12:55;;;;;;;;;;;;;;;6.88;100.00;101369.31;5071540;28;19970;-79
2024/02/21 07:15:21;;;;;;;;;;;;;;;6.92;100.00;101371.50;5070738;28;19924;-78
2024/02/21 07:17:46;;;;;;;;;;;;;;;6.92;100.00;101370.66;5073053;28;19920;-79
2024/02/21 07:20:11;;;;;;;;;;;;;;;7.00;100.00;101368.03;5072005;28;20402;-79
2024/02/21 07:22:36;;;;;;;;;;;;;;;7.02;100.00;101358.00;5070906;28;20352;-79
2024/02/21 07:25:02;;;;;;;;;;;;;;;7.00;100.00;101368.03;5072780;28;20352;-79
2024/02/21 07:27:30;;;;;;;;;;;;;;;7.02;100.00;101366.03;5071466;28;20410;-79
2024/02/21 07:29:55;;;;;;;;;;;;;;;7.02;100.00;101359.81;5070928;28;19924;-78
2024/02/21 07:32:21;;;;;;;;;;;;;;;7.03;100.00;101366.84;5071440;28;19943;-79
2024/02/21 07:34:46;;;;;;;;;;;;;;;7.08;100.00;101351.97;5070829;28;19920;-79
2024/02/21 07:37:14;;;;;;;;;;;;;;;7.15;100.00;101343.31;5070953;28;19927;-79
2024/02/21 07:39:39;;;;;;;;;;;;;;;7.16;100.00;101350.34;5071828;28;19920;-78
2024/02/21 07:42:04;;;;;;;;;;;;;;;7.15;100.00;101345.97;5069617;28;20334;-79
2024/02/21 07:44:31;;;;;;;;;;;;;;;7.16;100.00;101339.63;5071057;28;20090;-78
2024/02/21 07:46:56;;;;;;;;;;;;;;;7.17;100.00;101336.78;5072279;28;20277;-79
2024/02/21 07:49:22;;;;;;;;;;;;;;;7.18;100.00;101338.47;5070410;28;19967;-79
2024/02/21 07:51:47;;;;;;;;;;;;;;;7.07;100.00;101339.59;5071204;28;20288;-79
2024/02/21 07:54:12;;;;;;;;;;;;;;;7.23;100.00;101335.31;5071712;28;20265;-79
2024/02/21 07:56:37;;;;;;;;;;;;;;;7.21;100.00;101338.13;5062170;28;19927;-78
2024/02/21 07:59:03;;;;;;;;;;;;;;;7.27;100.00;101325.94;5071265;28;20332;-79
2024/02/21 08:01:28;;;;;;;;;;;;;;;7.25;100.00;101327.94;5071245;28;19931;-78
2024/02/21 08:03:53;;;;;;;;;;;;;;;7.31;100.00;101324.59;5070114;28;20109;-79
2024/02/21 08:06:18;;;;;;;;;;;;;;;7.29;100.00;101321.25;5062647;28;20015;-79
2024/02/21 08:08:44;;;;;;;;;;;;;;;7.30;100.00;101309.53;5071454;28;19956;-79
2024/02/21 08:11:09;;;;;;;;;;;;;;;7.32;100.00;101312.91;5070716;28;19924;-78
2024/02/21 08:13:34;;;;;;;;;;;;;;;7.26;100.00;101300.16;5070555;28;19920;-79
2024/02/21 08:15:59;;;;;;;;;;;;;;;7.39;100.00;101300.53;5071128;28;20313;-78
2024/02/21 08:18:25;;;;;;;;;;;;;;;7.35;100.00;101280.44;5061881;28;19994;-79
2024/02/21 08:20:50;;;;;;;;;;;;;;;7.42;100.00;101273.38;5070907;28;19960;-79
2024/02/21 08:23:15;;;;;;;;;;;;;;;7.43;100.00;101277.75;5071308;28;20340;-79
2024/02/21 08:25:42;;;;;;;;;;;;;;;7.47;100.00;101277.41;5070286;28;20288;-79
2024/02/21 08:28:08;;;;;;;;;;;;;;;7.49;100.00;101260.19;5070638;28;20331;-78
2024/02/21 08:30:36;;;;;;;;;;;;;;;7.53;100.00;101268.72;5070125;28;19923;-78
2024/02/21 08:33:01;;;;;;;;;;;;;;;7.46;100.00;101262.34;5070757;28;19921;-79
2024/02/21 08:35:26;;;;;;;;;;;;;;;7.63;100.00;101268.56;5070600;28;19917;-79
2024/02/21 08:37:52;;;;;;;;;;;;;;;7.70;100.00;101267.72;5062670;28;19928;-79
2024/02/21 08:40:19;;;;;;;;;;;;;;;7.74;100.00;101269.06;5070873;28;19956;-79
2024/02/21 08:42:44;;;;;;;;;;;;;;;7.77;100.00;101269.72;5070034;28;19924;-79
2024/02/21 08:45:09;;;;;;;;;;;;;;;7.79;100.00;101265.03;5069595;28;19927;-79
2024/02/21 08:47:37;;;;;;;;;;;;;;;7.86;100.00;101266.03;5071302;28;19916;-79
2024/02/21 08:50:03;;;;;;;;;;;;;;;7.81;100.00;101253.16;5070035;28;20315;-79
2024/02/21 08:52:28;;;;;;;;;;;;;;;7.87;100.00;101235.56;5071279;28;19943;-79
2024/02/21 08:54:53;;;;;;;;;;;;;;;7.98;100.00;101237.88;5075566;28;19986;-79
2024/02/21 08:57:19;;;;;;;;;;;;;;;7.93;100.00;101245.63;5074548;28;19960;-79
2024/02/21 08:59:44;;;;;;;;;;;;;;;8.00;100.00;101233.19;5073646;28;19963;-79
2024/02/21 09:02:09;;;;;;;;;;;;;;;7.99;100.00;101234.19;5075579;28;20049;-79
2024/02/21 09:04:34;;;;;;;;;;;;;;;7.92;100.00;101235.03;5074180;28;20003;-79
2024/02/21 09:07:00;;;;;;;;;;;;;;;7.88;100.00;101226.50;5073563;28;20036;-79
2024/02/21 09:09:25;;;;;;;;;;;;;;;7.95;100.00;101226.66;5082645;28;19927;-79
2024/02/21 09:11:50;;;;;;;;;;;;;;;7.91;100.00;101231.53;5091665;28;20023;-79
2024/02/21 09:14:19;;;;;;;;;;;;;;;7.93;100.00;101226.84;5073620;28;20014;-79
2024/02/21 09:16:44;;;;;;;;;;;;;;;8.00;100.00;101225.13;5074835;28;19982;-79
2024/02/21 09:19:11;;;;;;;;;;;;;;;7.94;100.00;101220.47;5073548;28;19928;-78
2024/02/21 09:21:39;;;;;;;;;;;;;;;7.97;100.00;101216.63;5073366;28;19978;-79
2024/02/21 09:24:05;;;;;;;;;;;;;;;8.00;100.00;101214.41;5074871;28;19929;-78
2024/02/21 09:26:30;;;;;;;;;;;;;;;8.14;100.00;101222.75;5073807;28;19924;-78
2024/02/21 09:28:56;;;;;;;;;;;;;;;8.19;100.00;101225.75;5072770;28;19943;-78
2024/02/21 09:31:28;;;;;;;;;;;;;;;8.26;100.00;101232.13;5074914;28;19921;-79
2024/02/21 09:33:53;;;;;;;;;;;;;;;8.12;100.00;101227.47;5073217;28;19920;-78
2024/02/21 09:36:18;;;;;;;;;;;;;;;8.22;100.00;101213.84;5072818;28;19924;-78
2024/02/21 09:38:43;;;;;;;;;;;;;;;8.16;100.00;101213.56;5074681;28;20009;-78
2024/02/21 09:41:08;;;;;;;;;;;;;;;8.03;100.00;101208.72;5073650;28;19948;-78
2024/02/21 09:43:34;;;;;;;;;;;;;;;8.13;100.00;101218.41;5072728;28;20031;-79
2024/02/21 09:46:01;;;;;;;;;;;;;;;8.17;100.00;101225.94;5073932;28;19939;-78
2024/02/21 09:48:38;;;;;;;;;;;;;;;8.15;100.00;101205.66;5055448;28;20387;-78
2024/02/21 09:51:03;;;;;;;;;;;;;;;8.18;100.00;101190.09;5073618;28;19916;-78
2024/02/21 09:53:29;;;;;;;;;;;;;;;8.16;100.00;101208.19;5074198;28;20325;-79
2024/02/21 09:55:57;;;;;;;;;;;;;;;8.13;100.00;101191.59;5071602;28;19947;-77
2024/02/21 09:58:22;;;;;;;;;;;;;;;8.27;100.00;101190.03;5054211;28;20367;-78
2024/02/21 10:00:47;;;;;;;;;;;;;;;8.32;100.00;101185.81;5074026;28;19956;-78
2024/02/21 10:03:13;;;;;;;;;;;;;;;8.34;100.00;101191.03;5072938;28;20276;-79
2024/02/21 10:05:39;;;;;;;;;;;;;;;8.41;99.87;101180.44;5072394;28;19925;-79
2024/02/21 10:08:04;;;;;;;;;;;;;;;8.33;100.00;101186.66;5073772;28;20273;-79
2024/02/21 10:10:29;;;;;;;;;;;;;;;8.39;99.86;101183.28;5072429;28;19925;-79
2024/02/21 10:12:55;;;;;;;;;;;;;;;8.47;99.13;101166.34;5073236;28;20042;-78
2024/02/21 10:15:22;;;;;;;;;;;;;;;8.43;98.83;101170.38;5072878;28;19924;-79
2024/02/21 10:17:47;;;;;;;;;;;;;;;8.47;98.64;101172.53;5065109;28;19921;-79
2024/02/21 10:20:14;;;;;;;;;;;;;;;8.40;98.98;101159.97;5072587;28;19927;-79
2024/02/21 10:22:39;;;;;;;;;;;;;;;8.44;98.23;101154.09;5073146;28;19967;-79
2024/02/21 10:25:13;;;;;;;;;;;;;;;8.40;98.87;101141.19;5072768;28;20343;-78
2024/02/21 10:27:39;;;;;;;;;;;;;;;8.38;98.96;101140.53;5072398;28;19920;-78
2024/02/21 10:30:05;;;;;;;;;;;;;;;8.43;99.72;101152.41;5073812;28;20023;-78
2024/02/21 10:32:30;;;;;;;;;;;;;;;8.35;99.68;101153.28;5070819;28;20043;-78
2024/02/21 10:35:04;;;;;;;;;;;;;;;8.28;100.00;101146.13;5054300;28;19967;-78
2024/02/21 10:37:29;;;;;;;;;;;;;;;8.22;100.00;101146.78;5066482;28;20258;-78
2024/02/21 10:39:57;;;;;;;;;;;;;;;8.05;100.00;101130.78;5070755;28;20670;-79
2024/02/21 10:42:22;;;;;;;;;;;;;;;8.10;100.00;101138.31;5072575;28;20015;-78
2024/02/21 10:44:48;;;;;;;;;;;;;;;8.08;100.00;101125.06;5071849;28;19924;-78
2024/02/21 10:47:14;;;;;;;;;;;;;;;8.02;100.00;101102.47;5054744;28;19931;-78
2024/02/21 10:49:49;;;;;;;;;;;;;;;7.70;100.00;101103.41;5065822;28;19920;-78
2024/02/21 10:52:30;;;;;;;;;;;;;;;7.61;100.00;101115.19;5071543;28;19928;-78
2024/02/21 10:54:56;;;;;;;;;;;;;;;7.62;100.00;101098.91;5072968;28;19924;-77
2024/02/21 10:57:22;;;;;;;;;;;;;;;7.66;100.00;101094.88;5070576;28;19928;-77
2024/02/21 10:59:47;;;;;;;;;;;;;;;7.63;100.00;101075.66;5053632;28;19920;-78
2024/02/21 11:02:12;;;;;;;;;;;;;;;7.67;100.00;101079.66;5055036;28;20316;-78
2024/02/21 11:04:37;;;;;;;;;;;;;;;7.73;100.00;101074.44;5071729;28;19920;-78
2024/02/21 11:07:06;;;;;;;;;;;;;;;7.78;100.00;101063.19;5053441;28;19920;-77
2024/02/21 11:09:32;;;;;;;;;;;;;;;7.72;100.00;101058.53;5072220;28;19924;-78
2024/02/21 11:11:58;;;;;;;;;;;;;;;7.72;100.00;101064.72;5071751;28;19990;-78
2024/02/21 11:14:25;;;;;;;;;;;;;;;7.72;100.00;101063.88;5071151;28;20256;-78
2024/02/21 11:16:50;;;;;;;;;;;;;;;7.61;100.00;101061.59;5054093;28;19932;-79
2024/02/21 11:19:22;;;;;;;;;;;;;;;7.57;100.00;101055.75;5071444;28;19930;-78
2024/02/21 11:21:47;;;;;;;;;;;;;;;7.62;100.00;101048.00;5063021;28;19928;-78
2024/02/21 11:24:13;;;;;;;;;;;;;;;7.67;100.00;101048.34;5072351;28;19927;-79
2024/02/21 11:26:38;;;;;;;;;;;;;;;7.63;100.00;101036.28;5070779;28;19925;-78
2024/02/21 11:29:09;;;;;;;;;;;;;;;7.65;100.00;101030.78;5070857;28;19943;-78
2024/02/21 11:31:43;;;;;;;;;;;;;;;7.66;100.00;101019.88;5072128;28;19924;-78
2024/02/21 11:34:09;;;;;;;;;;;;;;;7.72;100.00;101004.94;5064008;28;20261;-78
2024/02/21 11:36:35;;;;;;;;;;;;;;;7.81;100.00;100995.00;5071741;28;19921;-78
2024/02/21 11:39:04;;;;;;;;;;;;;;;7.93;100.00;100979.38;5072163;28;20019;-79
2024/02/21 11:41:29;;;;;;;;;;;;;;;8.07;100.00;100964.38;5064341;28;19921;-78
2024/02/21 11:43:54;;;;;;;;;;;;;;;8.18;100.00;100950.56;5069601;28;20273;-78
2024/02/21 11:46:20;;;;;;;;;;;;;;;8.30;100.00;100940.25;5072305;28;20349;-78
2024/02/21 11:48:49;;;;;;;;;;;;;;;8.28;100.00;100927.03;5070352;28;20321;-79
2024/02/21 11:51:20;;;;;;;;;;;;;;;8.47;100.00;100916.81;5071125;28;19962;-79
2024/02/21 11:53:45;;;;;;;;;;;;;;;8.51;100.00;100918.13;5071914;28;19972;-79
2024/02/21 11:56:11;;;;;;;;;;;;;;;8.41;99.96;100930.94;5069268;28;19959;-79
2024/02/21 11:58:36;;;;;;;;;;;;;;;8.46;99.75;100939.28;5071158;28;19998;-78
2024/02/21 12:01:02;;;;;;;;;;;;;;;8.46;98.80;100931.25;5071398;28;19956;-79
2024/02/21 12:03:28;;;;;;;;;;;;;;;8.52;99.14;100927.84;5070863;28;19920;-78
2024/02/21 12:05:56;;;;;;;;;;;;;;;8.43;96.94;100919.00;5070667;28;20375;-79
2024/02/21 12:08:21;;;;;;;;;;;;;;;8.56;97.66;100917.59;5071900;28;20323;-79
2024/02/21 12:10:51;;;;;;;;;;;;;;;8.51;96.18;100891.28;5069864;28;19951;-78
2024/02/21 12:13:16;;;;;;;;;;;;;;;8.48;95.67;100878.25;5070671;28;20003;-78
2024/02/21 12:15:41;;;;;;;;;;;;;;;8.55;95.87;100873.81;5064312;28;20446;-77
2024/02/21 12:18:06;;;;;;;;;;;;;;;8.52;95.17;100876.88;5070095;28;19921;-77
2024/02/21 12:20:36;;;;;;;;;;;;;;;8.55;95.33;100865.78;5070505;28;19921;-77
2024/02/21 12:23:01;;;;;;;;;;;;;;;8.58;94.75;100862.72;5071197;28;19959;-80
2024/02/21 12:25:27;;;;;;;;;;;;;;;8.49;94.74;100886.13;5070155;28;19972;-79
2024/02/21 12:27:52;;;;;;;;;;;;;;;8.37;94.96;100900.97;5051791;28;20348;-79
2024/02/21 12:30:18;;;;;;;;;;;;;;;8.38;96.33;100891.91;5070996;28;19925;-78